Portada
METAR-TAF:

METAR-TAF

Aeropuertos :

Aeropuerto Internacional Amata Kabua

Majuro, Islas Marshall

latitud: 07-04N, longitud: 171-17E, altitud: 2 m

Observación

El informe se hizo hace 4 horas y 27 minutos, a las 09:53 UTC
Viento 13 kt del este-noreste
Temperatura 28°C
Humedad 79%
Presión 1010 hPa
Visibilidad: 24.1 km
Escasas nubes a una altura de 1500 ft
Nubes dispersas a una altura de 5000 ft
Cielo nuboso a una altura de 30000 ft

METAR: PKMJ 190953Z 06013KT 15SM FEW015 SCT050 BKN300 28/24 A2983 RMK LAST

Hora: 02:20 (14:20 UTC)

Pronóstico

El informe se hizo hace 3 horas y 0 minutos, a las 11:20 UTC
Pronóstico válido del 19 a las 12 UTC al 20 a las 12 UTC
Viento 17 kt del este-noreste
Visibilidad: 10 km
Escasas nubes a una altura de 1500 ft
Nubes dispersas a una altura de 3000 ft
chaparrones en las proximidades,

TAF: PKMJ 191120Z 1912/2012 06017KT P6SM VCSH FEW015 SCT030

Observaciones y pronósticos meteorológicos de más de 4000 aeropuertos (mensajes METAR y TAF).

Los puntos amarillos y rojos representan las estaciones disponibles.

Ponga el ratón en el punto deseado para ver el nombre de la estación.

Haga clic para ver las observaciones y los pronósticos meteorológicos.

Para cambiar el mapa : haga clic en los botones verdes con una cruz de color negro para hacer un zoom, en el botón verde con un guión para alejar o en las flechas verdes para mapas adyacentes.


METAR-TAF: